sensor_id;sensor_type;location;lat;lon;timestamp;P1;durP1;ratioP1;P2;durP2;ratioP2
49582;SDS011;36329;48.816;44.624;2023-05-20T00:02:02;18.3;;;6;;
49582;SDS011;36329;48.816;44.624;2023-05-20T00:05:05;16.1;;;6;;
49582;SDS011;36329;48.816;44.624;2023-05-20T00:08:07;14.1;;;5.5;;
49582;SDS011;36329;48.816;44.624;2023-05-20T00:11:10;13.6;;;5.6;;
49582;SDS011;36329;48.816;44.624;2023-05-20T00:14:12;15.9;;;6;;
49582;SDS011;36329;48.816;44.624;2023-05-20T00:17:14;16.7;;;6;;
49582;SDS011;36329;48.816;44.624;2023-05-20T00:20:16;13.5;;;5.9;;
49582;SDS011;36329;48.816;44.624;2023-05-20T00:23:18;14.5;;;5.9;;
49582;SDS011;36329;48.816;44.624;2023-05-20T00:26:20;14.4;;;6.3;;
49582;SDS011;36329;48.816;44.624;2023-05-20T00:29:22;14.6;;;5.9;;
49582;SDS011;36329;48.816;44.624;2023-05-20T00:32:24;16.3;;;6.6;;
49582;SDS011;36329;48.816;44.624;2023-05-20T00:35:26;16.2;;;6.5;;
49582;SDS011;36329;48.816;44.624;2023-05-20T00:38:28;17.1;;;6.8;;
49582;SDS011;36329;48.816;44.624;2023-05-20T00:41:30;19.8;;;6.6;;
49582;SDS011;36329;48.816;44.624;2023-05-20T00:44:32;14.3;;;6.4;;
49582;SDS011;36329;48.816;44.624;2023-05-20T00:47:34;17;;;6.6;;
49582;SDS011;36329;48.816;44.624;2023-05-20T00:50:36;19.7;;;6.9;;
49582;SDS011;36329;48.816;44.624;2023-05-20T00:53:39;18.4;;;6.7;;
49582;SDS011;36329;48.816;44.624;2023-05-20T00:56:42;18.3;;;6.5;;
49582;SDS011;36329;48.816;44.624;2023-05-20T00:59:45;16.6;;;6.5;;
49582;SDS011;36329;48.816;44.624;2023-05-20T01:02:47;16.4;;;6.8;;
49582;SDS011;36329;48.816;44.624;2023-05-20T01:05:51;17.8;;;6.2;;
49582;SDS011;36329;48.816;44.624;2023-05-20T01:08:53;15.8;;;6.8;;
49582;SDS011;36329;48.816;44.624;2023-05-20T01:11:55;17.9;;;7.2;;
49582;SDS011;36329;48.816;44.624;2023-05-20T01:15:06;16.6;;;7;;
49582;SDS011;36329;48.816;44.624;2023-05-20T01:18:10;19.9;;;6.9;;
49582;SDS011;36329;48.816;44.624;2023-05-20T01:21:14;17;;;7.7;;
49582;SDS011;36329;48.816;44.624;2023-05-20T01:24:17;23;;;7.2;;
49582;SDS011;36329;48.816;44.624;2023-05-20T01:27:20;29.8;;;7.9;;
49582;SDS011;36329;48.816;44.624;2023-05-20T01:30:23;16;;;6.8;;
49582;SDS011;36329;48.816;44.624;2023-05-20T01:33:30;18.6;;;7.3;;
49582;SDS011;36329;48.816;44.624;2023-05-20T01:36:36;18.4;;;7;;
49582;SDS011;36329;48.816;44.624;2023-05-20T01:39:41;22.7;;;8;;
49582;SDS011;36329;48.816;44.624;2023-05-20T01:42:43;19.7;;;7.2;;
49582;SDS011;36329;48.816;44.624;2023-05-20T01:45:46;16.7;;;7.2;;
49582;SDS011;36329;48.816;44.624;2023-05-20T01:48:48;13.4;;;6.7;;
49582;SDS011;36329;48.816;44.624;2023-05-20T01:51:50;20.7;;;7.4;;
49582;SDS011;36329;48.816;44.624;2023-05-20T01:54:52;20.7;;;7.1;;
49582;SDS011;36329;48.816;44.624;2023-05-20T01:57:54;21.1;;;7.5;;
49582;SDS011;36329;48.816;44.624;2023-05-20T02:00:56;19.8;;;7.6;;
49582;SDS011;36329;48.816;44.624;2023-05-20T02:03:58;20.5;;;7.3;;
49582;SDS011;36329;48.816;44.624;2023-05-20T02:07:00;24.1;;;7.7;;
49582;SDS011;36329;48.816;44.624;2023-05-20T02:10:02;18.1;;;6.7;;
49582;SDS011;36329;48.816;44.624;2023-05-20T02:13:09;21.6;;;7.8;;
49582;SDS011;36329;48.816;44.624;2023-05-20T02:16:11;18.4;;;6.5;;
49582;SDS011;36329;48.816;44.624;2023-05-20T02:19:13;19.1;;;7.1;;
49582;SDS011;36329;48.816;44.624;2023-05-20T02:22:15;22.4;;;7;;
49582;SDS011;36329;48.816;44.624;2023-05-20T02:25:17;26;;;7.8;;
49582;SDS011;36329;48.816;44.624;2023-05-20T02:28:19;19.4;;;7.2;;
49582;SDS011;36329;48.816;44.624;2023-05-20T02:31:21;20;;;7.2;;
49582;SDS011;36329;48.816;44.624;2023-05-20T02:34:23;23.8;;;7.1;;
49582;SDS011;36329;48.816;44.624;2023-05-20T02:37:25;19.8;;;7.3;;
49582;SDS011;36329;48.816;44.624;2023-05-20T02:40:27;20.2;;;6.9;;
49582;SDS011;36329;48.816;44.624;2023-05-20T02:43:29;13.7;;;6.7;;
49582;SDS011;36329;48.816;44.624;2023-05-20T02:46:30;19.9;;;7.1;;
49582;SDS011;36329;48.816;44.624;2023-05-20T02:49:32;19.2;;;6.8;;
49582;SDS011;36329;48.816;44.624;2023-05-20T02:52:34;19.3;;;7.2;;
49582;SDS011;36329;48.816;44.624;2023-05-20T02:55:36;17.7;;;7.2;;
49582;SDS011;36329;48.816;44.624;2023-05-20T02:58:38;21;;;7.5;;
49582;SDS011;36329;48.816;44.624;2023-05-20T03:01:40;20.4;;;7.2;;
49582;SDS011;36329;48.816;44.624;2023-05-20T03:04:42;20.5;;;7.2;;
49582;SDS011;36329;48.816;44.624;2023-05-20T03:07:44;18;;;7.1;;
49582;SDS011;36329;48.816;44.624;2023-05-20T03:10:46;18.6;;;6.4;;
49582;SDS011;36329;48.816;44.624;2023-05-20T03:13:48;21.2;;;6.5;;
49582;SDS011;36329;48.816;44.624;2023-05-20T03:16:50;16.4;;;6.2;;
49582;SDS011;36329;48.816;44.624;2023-05-20T03:19:52;15.6;;;5.7;;
49582;SDS011;36329;48.816;44.624;2023-05-20T03:22:54;29.9;;;6.4;;
49582;SDS011;36329;48.816;44.624;2023-05-20T03:25:56;13.4;;;4.9;;
49582;SDS011;36329;48.816;44.624;2023-05-20T03:28:58;13.6;;;6;;
49582;SDS011;36329;48.816;44.624;2023-05-20T03:32:00;19.4;;;5.3;;
49582;SDS011;36329;48.816;44.624;2023-05-20T03:35:02;21.7;;;5.7;;
49582;SDS011;36329;48.816;44.624;2023-05-20T03:38:06;15.2;;;5.1;;
49582;SDS011;36329;48.816;44.624;2023-05-20T03:41:08;14.7;;;5.4;;
49582;SDS011;36329;48.816;44.624;2023-05-20T03:44:10;17.7;;;4.9;;
49582;SDS011;36329;48.816;44.624;2023-05-20T03:47:12;13.9;;;6;;
49582;SDS011;36329;48.816;44.624;2023-05-20T03:50:14;14.5;;;5.3;;
49582;SDS011;36329;48.816;44.624;2023-05-20T03:53:15;14.7;;;5;;
49582;SDS011;36329;48.816;44.624;2023-05-20T03:56:17;14.3;;;4.9;;
49582;SDS011;36329;48.816;44.624;2023-05-20T03:59:19;14.4;;;4.9;;
49582;SDS011;36329;48.816;44.624;2023-05-20T04:02:21;10.5;;;4.9;;
49582;SDS011;36329;48.816;44.624;2023-05-20T04:05:23;12.1;;;4.6;;
49582;SDS011;36329;48.816;44.624;2023-05-20T04:08:25;12;;;4.5;;
49582;SDS011;36329;48.816;44.624;2023-05-20T04:11:27;13.6;;;4.4;;
49582;SDS011;36329;48.816;44.624;2023-05-20T04:14:30;17.9;;;5.5;;
49582;SDS011;36329;48.816;44.624;2023-05-20T04:17:32;17.8;;;5.9;;
49582;SDS011;36329;48.816;44.624;2023-05-20T04:20:34;16.6;;;5.1;;
49582;SDS011;36329;48.816;44.624;2023-05-20T04:23:36;16.2;;;5.5;;
49582;SDS011;36329;48.816;44.624;2023-05-20T04:26:38;16.9;;;5.5;;
49582;SDS011;36329;48.816;44.624;2023-05-20T04:29:40;17;;;5.6;;
49582;SDS011;36329;48.816;44.624;2023-05-20T04:32:43;16.2;;;5.8;;
49582;SDS011;36329;48.816;44.624;2023-05-20T04:35:45;15.9;;;4.6;;
49582;SDS011;36329;48.816;44.624;2023-05-20T04:38:46;14.7;;;4.4;;
49582;SDS011;36329;48.816;44.624;2023-05-20T04:41:49;14.1;;;4.6;;
49582;SDS011;36329;48.816;44.624;2023-05-20T04:44:51;12.7;;;4.2;;
49582;SDS011;36329;48.816;44.624;2023-05-20T04:47:53;9.1;;;3.7;;
49582;SDS011;36329;48.816;44.624;2023-05-20T04:50:55;11;;;3.4;;
49582;SDS011;36329;48.816;44.624;2023-05-20T04:53:57;12.4;;;3.6;;
49582;SDS011;36329;48.816;44.624;2023-05-20T04:56:59;9.5;;;3.2;;
49582;SDS011;36329;48.816;44.624;2023-05-20T05:00:01;9.6;;;3.6;;
49582;SDS011;36329;48.816;44.624;2023-05-20T05:03:07;10.6;;;3.3;;
49582;SDS011;36329;48.816;44.624;2023-05-20T05:06:09;7.6;;;3.4;;
49582;SDS011;36329;48.816;44.624;2023-05-20T05:09:11;11.1;;;3.3;;
49582;SDS011;36329;48.816;44.624;2023-05-20T05:12:13;9.4;;;3.4;;
49582;SDS011;36329;48.816;44.624;2023-05-20T05:15:15;9.4;;;3.2;;
49582;SDS011;36329;48.816;44.624;2023-05-20T05:18:17;9.1;;;3.3;;
49582;SDS011;36329;48.816;44.624;2023-05-20T05:21:18;11.7;;;3.3;;
49582;SDS011;36329;48.816;44.624;2023-05-20T05:24:20;9;;;3.4;;
49582;SDS011;36329;48.816;44.624;2023-05-20T05:27:22;10.9;;;3.4;;
49582;SDS011;36329;48.816;44.624;2023-05-20T05:30:24;11.5;;;3.7;;
49582;SDS011;36329;48.816;44.624;2023-05-20T05:33:26;8.6;;;3.5;;
49582;SDS011;36329;48.816;44.624;2023-05-20T05:36:31;9.7;;;3.8;;
49582;SDS011;36329;48.816;44.624;2023-05-20T05:39:35;9.3;;;3.6;;
49582;SDS011;36329;48.816;44.624;2023-05-20T05:42:36;10.9;;;4.3;;
49582;SDS011;36329;48.816;44.624;2023-05-20T05:45:38;13.3;;;3.6;;
49582;SDS011;36329;48.816;44.624;2023-05-20T05:48:40;9.9;;;3;;
49582;SDS011;36329;48.816;44.624;2023-05-20T05:51:42;8.2;;;3.3;;
49582;SDS011;36329;48.816;44.624;2023-05-20T05:54:44;11.6;;;2.8;;
49582;SDS011;36329;48.816;44.624;2023-05-20T05:57:46;12;;;3.4;;
49582;SDS011;36329;48.816;44.624;2023-05-20T06:00:50;8.1;;;2.7;;
49582;SDS011;36329;48.816;44.624;2023-05-20T06:03:52;11.9;;;3;;
49582;SDS011;36329;48.816;44.624;2023-05-20T06:06:54;8;;;3;;
49582;SDS011;36329;48.816;44.624;2023-05-20T06:09:56;11.6;;;3.1;;
49582;SDS011;36329;48.816;44.624;2023-05-20T06:12:58;9.2;;;3.2;;
49582;SDS011;36329;48.816;44.624;2023-05-20T06:16:00;13.5;;;3.7;;
49582;SDS011;36329;48.816;44.624;2023-05-20T06:19:02;10.5;;;3;;
49582;SDS011;36329;48.816;44.624;2023-05-20T06:22:04;6.1;;;2.7;;
49582;SDS011;36329;48.816;44.624;2023-05-20T06:25:06;9.4;;;2.9;;
49582;SDS011;36329;48.816;44.624;2023-05-20T06:28:09;8.4;;;2.8;;
49582;SDS011;36329;48.816;44.624;2023-05-20T06:31:11;5.9;;;2.7;;
49582;SDS011;36329;48.816;44.624;2023-05-20T06:34:12;7.8;;;2.5;;
49582;SDS011;36329;48.816;44.624;2023-05-20T06:37:15;8.6;;;2.5;;
49582;SDS011;36329;48.816;44.624;2023-05-20T06:40:17;6.9;;;2.7;;
49582;SDS011;36329;48.816;44.624;2023-05-20T06:43:19;8.8;;;3.1;;
49582;SDS011;36329;48.816;44.624;2023-05-20T06:46:22;14.4;;;4.4;;
49582;SDS011;36329;48.816;44.624;2023-05-20T06:49:24;9.7;;;4.1;;
49582;SDS011;36329;48.816;44.624;2023-05-20T06:52:26;7.6;;;2.9;;
49582;SDS011;36329;48.816;44.624;2023-05-20T06:55:28;7;;;2.6;;
49582;SDS011;36329;48.816;44.624;2023-05-20T06:58:31;7.4;;;2.7;;
49582;SDS011;36329;48.816;44.624;2023-05-20T07:01:33;5.1;;;2.4;;
49582;SDS011;36329;48.816;44.624;2023-05-20T07:04:35;4.7;;;2;;
49582;SDS011;36329;48.816;44.624;2023-05-20T07:07:37;6.6;;;2.2;;
49582;SDS011;36329;48.816;44.624;2023-05-20T07:10:39;3.5;;;2.4;;
49582;SDS011;36329;48.816;44.624;2023-05-20T07:13:41;7.1;;;2.7;;
49582;SDS011;36329;48.816;44.624;2023-05-20T07:16:43;6.1;;;2.6;;
49582;SDS011;36329;48.816;44.624;2023-05-20T07:19:45;10;;;3.5;;
49582;SDS011;36329;48.816;44.624;2023-05-20T07:22:47;7.4;;;2.9;;
49582;SDS011;36329;48.816;44.624;2023-05-20T07:25:49;9.2;;;3.1;;
49582;SDS011;36329;48.816;44.624;2023-05-20T07:28:50;7.9;;;2.9;;
49582;SDS011;36329;48.816;44.624;2023-05-20T07:31:52;10.6;;;4.1;;
49582;SDS011;36329;48.816;44.624;2023-05-20T07:34:55;10.8;;;3.4;;
49582;SDS011;36329;48.816;44.624;2023-05-20T07:37:56;8.6;;;3.3;;
49582;SDS011;36329;48.816;44.624;2023-05-20T07:40:59;9.2;;;3.2;;
49582;SDS011;36329;48.816;44.624;2023-05-20T07:44:01;9.4;;;3.6;;
49582;SDS011;36329;48.816;44.624;2023-05-20T07:47:03;10.5;;;3.5;;
49582;SDS011;36329;48.816;44.624;2023-05-20T07:50:06;9.8;;;3.5;;
49582;SDS011;36329;48.816;44.624;2023-05-20T07:53:08;9;;;3.2;;
49582;SDS011;36329;48.816;44.624;2023-05-20T07:56:10;10.9;;;3.3;;
49582;SDS011;36329;48.816;44.624;2023-05-20T07:59:12;12.3;;;3.1;;
49582;SDS011;36329;48.816;44.624;2023-05-20T08:02:13;11;;;3.4;;
49582;SDS011;36329;48.816;44.624;2023-05-20T08:05:15;9.4;;;2.9;;
49582;SDS011;36329;48.816;44.624;2023-05-20T08:08:17;9.5;;;3.5;;
49582;SDS011;36329;48.816;44.624;2023-05-20T08:11:19;9.2;;;3.3;;
49582;SDS011;36329;48.816;44.624;2023-05-20T08:14:21;12.7;;;3.9;;
49582;SDS011;36329;48.816;44.624;2023-05-20T08:17:23;12.8;;;4.4;;
49582;SDS011;36329;48.816;44.624;2023-05-20T08:20:25;9.9;;;4.1;;
49582;SDS011;36329;48.816;44.624;2023-05-20T08:23:27;8;;;3.4;;
49582;SDS011;36329;48.816;44.624;2023-05-20T08:26:29;10.8;;;5.1;;
49582;SDS011;36329;48.816;44.624;2023-05-20T08:29:31;9.1;;;4.3;;
49582;SDS011;36329;48.816;44.624;2023-05-20T08:32:33;9.3;;;3.8;;
49582;SDS011;36329;48.816;44.624;2023-05-20T08:35:35;12.1;;;3.7;;
49582;SDS011;36329;48.816;44.624;2023-05-20T08:38:37;6;;;3.4;;
49582;SDS011;36329;48.816;44.624;2023-05-20T08:41:39;12;;;3.6;;
49582;SDS011;36329;48.816;44.624;2023-05-20T08:44:43;12;;;3.7;;
49582;SDS011;36329;48.816;44.624;2023-05-20T08:47:46;8.8;;;3.5;;
49582;SDS011;36329;48.816;44.624;2023-05-20T08:50:49;9.6;;;3.6;;
49582;SDS011;36329;48.816;44.624;2023-05-20T08:53:51;9.9;;;3.6;;
49582;SDS011;36329;48.816;44.624;2023-05-20T08:56:54;10.6;;;3.5;;
49582;SDS011;36329;48.816;44.624;2023-05-20T08:59:56;11;;;3.6;;
49582;SDS011;36329;48.816;44.624;2023-05-20T09:03:00;7.6;;;3.3;;
49582;SDS011;36329;48.816;44.624;2023-05-20T09:06:03;8.3;;;3.5;;
49582;SDS011;36329;48.816;44.624;2023-05-20T09:09:06;10.9;;;3.8;;
49582;SDS011;36329;48.816;44.624;2023-05-20T09:12:07;11.8;;;3.7;;
49582;SDS011;36329;48.816;44.624;2023-05-20T09:15:09;8.6;;;4.3;;
49582;SDS011;36329;48.816;44.624;2023-05-20T09:18:11;12.6;;;4.8;;
49582;SDS011;36329;48.816;44.624;2023-05-20T09:21:13;12.7;;;3.6;;
49582;SDS011;36329;48.816;44.624;2023-05-20T09:24:19;9.2;;;3.5;;
49582;SDS011;36329;48.816;44.624;2023-05-20T09:27:21;9;;;3.6;;
49582;SDS011;36329;48.816;44.624;2023-05-20T09:30:23;6.7;;;3.5;;
49582;SDS011;36329;48.816;44.624;2023-05-20T09:33:27;10.6;;;4.1;;
49582;SDS011;36329;48.816;44.624;2023-05-20T09:36:29;9;;;3.6;;
49582;SDS011;36329;48.816;44.624;2023-05-20T09:39:38;5.8;;;3.4;;
49582;SDS011;36329;48.816;44.624;2023-05-20T09:42:49;11;;;4.1;;
49582;SDS011;36329;48.816;44.624;2023-05-20T09:45:54;6.9;;;3.5;;
49582;SDS011;36329;48.816;44.624;2023-05-20T09:48:56;8.1;;;3.8;;
49582;SDS011;36329;48.816;44.624;2023-05-20T09:51:59;8.6;;;3.5;;
49582;SDS011;36329;48.816;44.624;2023-05-20T09:55:04;7.1;;;3.3;;
49582;SDS011;36329;48.816;44.624;2023-05-20T09:58:07;5.2;;;3.3;;
49582;SDS011;36329;48.816;44.624;2023-05-20T10:01:11;13.7;;;4.1;;
49582;SDS011;36329;48.816;44.624;2023-05-20T10:04:13;7.9;;;3.6;;
49582;SDS011;36329;48.816;44.624;2023-05-20T10:07:23;6.9;;;3.4;;
49582;SDS011;36329;48.816;44.624;2023-05-20T10:10:36;6.4;;;3.1;;
49582;SDS011;36329;48.816;44.624;2023-05-20T10:13:52;7.6;;;3.2;;
49582;SDS011;36329;48.816;44.624;2023-05-20T10:17:03;5.7;;;3.2;;
49582;SDS011;36329;48.816;44.624;2023-05-20T10:20:08;8.1;;;3.7;;
49582;SDS011;36329;48.816;44.624;2023-05-20T10:23:18;7.9;;;3.5;;
49582;SDS011;36329;48.816;44.624;2023-05-20T10:26:22;7;;;3.4;;
49582;SDS011;36329;48.816;44.624;2023-05-20T10:29:23;8.7;;;3.6;;
49582;SDS011;36329;48.816;44.624;2023-05-20T10:32:26;11.2;;;3.6;;
49582;SDS011;36329;48.816;44.624;2023-05-20T10:35:29;6.8;;;3.1;;
49582;SDS011;36329;48.816;44.624;2023-05-20T10:38:31;10.8;;;3.5;;
49582;SDS011;36329;48.816;44.624;2023-05-20T10:41:33;11.3;;;3.5;;
49582;SDS011;36329;48.816;44.624;2023-05-20T10:44:43;7.2;;;3.7;;
49582;SDS011;36329;48.816;44.624;2023-05-20T10:47:52;8.9;;;3.6;;
49582;SDS011;36329;48.816;44.624;2023-05-20T10:50:56;7.9;;;3.5;;
49582;SDS011;36329;48.816;44.624;2023-05-20T10:53:59;8.5;;;3.5;;
49582;SDS011;36329;48.816;44.624;2023-05-20T10:57:05;9.9;;;3.5;;
49582;SDS011;36329;48.816;44.624;2023-05-20T11:00:08;8.8;;;4.2;;
49582;SDS011;36329;48.816;44.624;2023-05-20T11:03:11;8.9;;;3.5;;
49582;SDS011;36329;48.816;44.624;2023-05-20T11:06:15;8.7;;;3.5;;
49582;SDS011;36329;48.816;44.624;2023-05-20T11:09:18;7.9;;;3.5;;
49582;SDS011;36329;48.816;44.624;2023-05-20T11:12:20;9.6;;;3.6;;
49582;SDS011;36329;48.816;44.624;2023-05-20T11:15:22;7.3;;;3.3;;
49582;SDS011;36329;48.816;44.624;2023-05-20T11:18:25;10.4;;;3.4;;
49582;SDS011;36329;48.816;44.624;2023-05-20T11:21:27;10.9;;;3.6;;
49582;SDS011;36329;48.816;44.624;2023-05-20T11:24:29;7.6;;;3.3;;
49582;SDS011;36329;48.816;44.624;2023-05-20T11:27:32;7.6;;;3.1;;
49582;SDS011;36329;48.816;44.624;2023-05-20T11:30:34;7.5;;;3.1;;
49582;SDS011;36329;48.816;44.624;2023-05-20T11:33:39;6.3;;;2.9;;
49582;SDS011;36329;48.816;44.624;2023-05-20T11:36:43;5.6;;;3.5;;
49582;SDS011;36329;48.816;44.624;2023-05-20T11:39:45;7.5;;;3.2;;
49582;SDS011;36329;48.816;44.624;2023-05-20T11:42:46;6.4;;;3.3;;
49582;SDS011;36329;48.816;44.624;2023-05-20T11:45:51;7.3;;;3.8;;
49582;SDS011;36329;48.816;44.624;2023-05-20T11:48:55;5.7;;;3.1;;
49582;SDS011;36329;48.816;44.624;2023-05-20T11:51:58;6.9;;;2.9;;
49582;SDS011;36329;48.816;44.624;2023-05-20T11:55:00;8.7;;;3.3;;
49582;SDS011;36329;48.816;44.624;2023-05-20T11:58:02;6.1;;;3.3;;
49582;SDS011;36329;48.816;44.624;2023-05-20T12:01:04;10.1;;;3.3;;
49582;SDS011;36329;48.816;44.624;2023-05-20T12:04:06;6.6;;;3.3;;
49582;SDS011;36329;48.816;44.624;2023-05-20T12:07:08;6.7;;;3.2;;
49582;SDS011;36329;48.816;44.624;2023-05-20T12:10:10;7.6;;;3.2;;
49582;SDS011;36329;48.816;44.624;2023-05-20T12:13:12;8.8;;;2.9;;
49582;SDS011;36329;48.816;44.624;2023-05-20T12:16:14;6.7;;;3.1;;
49582;SDS011;36329;48.816;44.624;2023-05-20T12:19:16;6.5;;;3.2;;
49582;SDS011;36329;48.816;44.624;2023-05-20T12:22:18;6.9;;;3.3;;
49582;SDS011;36329;48.816;44.624;2023-05-20T12:25:20;7.4;;;3.1;;
49582;SDS011;36329;48.816;44.624;2023-05-20T12:28:22;6.5;;;3.2;;
49582;SDS011;36329;48.816;44.624;2023-05-20T12:31:24;4.9;;;3.1;;
49582;SDS011;36329;48.816;44.624;2023-05-20T12:34:27;5.4;;;3.2;;
49582;SDS011;36329;48.816;44.624;2023-05-20T12:37:28;5.8;;;2.9;;
49582;SDS011;36329;48.816;44.624;2023-05-20T12:40:31;8.1;;;3.2;;
49582;SDS011;36329;48.816;44.624;2023-05-20T12:43:33;8.1;;;3.4;;
49582;SDS011;36329;48.816;44.624;2023-05-20T12:46:35;6.6;;;3.5;;
49582;SDS011;36329;48.816;44.624;2023-05-20T12:49:39;15.5;;;3.7;;
49582;SDS011;36329;48.816;44.624;2023-05-20T12:52:40;7.2;;;3.2;;
49582;SDS011;36329;48.816;44.624;2023-05-20T12:55:43;10.7;;;3.5;;
49582;SDS011;36329;48.816;44.624;2023-05-20T13:02:31;10.3;;;3.5;;
49582;SDS011;36329;48.816;44.624;2023-05-20T13:05:33;6.2;;;3.4;;
49582;SDS011;36329;48.816;44.624;2023-05-20T13:08:35;7.8;;;3.3;;
49582;SDS011;36329;48.816;44.624;2023-05-20T13:11:37;7.3;;;3.3;;
49582;SDS011;36329;48.816;44.624;2023-05-20T13:14:38;11.3;;;3.4;;
49582;SDS011;36329;48.816;44.624;2023-05-20T13:17:40;5.8;;;3.1;;
49582;SDS011;36329;48.816;44.624;2023-05-20T13:20:44;10.1;;;3.3;;
49582;SDS011;36329;48.816;44.624;2023-05-20T13:23:46;5.4;;;3.3;;
49582;SDS011;36329;48.816;44.624;2023-05-20T13:26:48;7.5;;;3.6;;
49582;SDS011;36329;48.816;44.624;2023-05-20T13:29:49;5.3;;;3.5;;
49582;SDS011;36329;48.816;44.624;2023-05-20T13:32:52;8.3;;;3.5;;
49582;SDS011;36329;48.816;44.624;2023-05-20T13:35:54;9.5;;;3.3;;
49582;SDS011;36329;48.816;44.624;2023-05-20T13:38:55;5.3;;;3.4;;
49582;SDS011;36329;48.816;44.624;2023-05-20T13:41:57;6.8;;;3.1;;
49582;SDS011;36329;48.816;44.624;2023-05-20T13:44:59;6;;;3.1;;
49582;SDS011;36329;48.816;44.624;2023-05-20T13:48:01;7.1;;;3.3;;
49582;SDS011;36329;48.816;44.624;2023-05-20T13:51:04;7.8;;;3.4;;
49582;SDS011;36329;48.816;44.624;2023-05-20T13:54:06;9.9;;;3.6;;
49582;SDS011;36329;48.816;44.624;2023-05-20T13:57:08;10.1;;;3.5;;
49582;SDS011;36329;48.816;44.624;2023-05-20T14:00:10;5.5;;;3.5;;
49582;SDS011;36329;48.816;44.624;2023-05-20T14:03:13;7.5;;;3.4;;
49582;SDS011;36329;48.816;44.624;2023-05-20T14:06:15;9.2;;;3.8;;
49582;SDS011;36329;48.816;44.624;2023-05-20T14:09:17;7;;;3.6;;
49582;SDS011;36329;48.816;44.624;2023-05-20T14:12:19;11.9;;;3.8;;
49582;SDS011;36329;48.816;44.624;2023-05-20T14:15:21;8.9;;;4.2;;
49582;SDS011;36329;48.816;44.624;2023-05-20T14:18:23;7.2;;;3.8;;
49582;SDS011;36329;48.816;44.624;2023-05-20T14:21:25;8.6;;;3.4;;
49582;SDS011;36329;48.816;44.624;2023-05-20T14:24:27;6.1;;;3.3;;
49582;SDS011;36329;48.816;44.624;2023-05-20T14:27:29;8.1;;;3.9;;
49582;SDS011;36329;48.816;44.624;2023-05-20T14:30:31;7.6;;;3.2;;
49582;SDS011;36329;48.816;44.624;2023-05-20T14:33:33;6.7;;;3.8;;
49582;SDS011;36329;48.816;44.624;2023-05-20T14:36:35;12;;;4.3;;
49582;SDS011;36329;48.816;44.624;2023-05-20T14:39:37;8.1;;;4.3;;
49582;SDS011;36329;48.816;44.624;2023-05-20T14:42:40;7;;;4;;
49582;SDS011;36329;48.816;44.624;2023-05-20T14:45:42;7.1;;;3.9;;
49582;SDS011;36329;48.816;44.624;2023-05-20T14:48:44;9.4;;;3.7;;
49582;SDS011;36329;48.816;44.624;2023-05-20T14:51:46;9.8;;;3.7;;
49582;SDS011;36329;48.816;44.624;2023-05-20T14:54:48;10.5;;;3.6;;
49582;SDS011;36329;48.816;44.624;2023-05-20T14:57:50;9;;;3.7;;
49582;SDS011;36329;48.816;44.624;2023-05-20T15:00:52;8.3;;;4;;
49582;SDS011;36329;48.816;44.624;2023-05-20T15:03:55;8.7;;;3.8;;
49582;SDS011;36329;48.816;44.624;2023-05-20T15:06:57;11.2;;;3.9;;
49582;SDS011;36329;48.816;44.624;2023-05-20T15:09:59;12.4;;;3.9;;
49582;SDS011;36329;48.816;44.624;2023-05-20T15:13:01;9.5;;;4;;
49582;SDS011;36329;48.816;44.624;2023-05-20T15:16:03;12.4;;;3.9;;
49582;SDS011;36329;48.816;44.624;2023-05-20T15:19:06;10.3;;;4;;
49582;SDS011;36329;48.816;44.624;2023-05-20T15:22:08;9;;;4.1;;
49582;SDS011;36329;48.816;44.624;2023-05-20T15:25:10;7.2;;;3.8;;
49582;SDS011;36329;48.816;44.624;2023-05-20T15:28:12;10.3;;;3.9;;
49582;SDS011;36329;48.816;44.624;2023-05-20T15:31:13;8.3;;;3.8;;
49582;SDS011;36329;48.816;44.624;2023-05-20T15:34:16;7.9;;;3.8;;
49582;SDS011;36329;48.816;44.624;2023-05-20T15:37:18;8.6;;;3.8;;
49582;SDS011;36329;48.816;44.624;2023-05-20T15:40:20;9.8;;;4.1;;
49582;SDS011;36329;48.816;44.624;2023-05-20T15:43:22;9.5;;;4;;
49582;SDS011;36329;48.816;44.624;2023-05-20T15:46:24;10.3;;;4.1;;
49582;SDS011;36329;48.816;44.624;2023-05-20T15:49:27;8.2;;;4.3;;
49582;SDS011;36329;48.816;44.624;2023-05-20T15:52:29;7.3;;;3.9;;
49582;SDS011;36329;48.816;44.624;2023-05-20T15:55:31;9;;;4.3;;
49582;SDS011;36329;48.816;44.624;2023-05-20T15:58:33;6.7;;;4.1;;
49582;SDS011;36329;48.816;44.624;2023-05-20T16:01:35;9.2;;;4.9;;
49582;SDS011;36329;48.816;44.624;2023-05-20T16:04:37;7.5;;;4.5;;
49582;SDS011;36329;48.816;44.624;2023-05-20T16:07:40;11.5;;;4.7;;
49582;SDS011;36329;48.816;44.624;2023-05-20T16:10:43;11.1;;;5;;
49582;SDS011;36329;48.816;44.624;2023-05-20T16:13:45;9.3;;;5;;
49582;SDS011;36329;48.816;44.624;2023-05-20T16:16:47;11.1;;;5.1;;
49582;SDS011;36329;48.816;44.624;2023-05-20T16:19:49;11.9;;;5.5;;
49582;SDS011;36329;48.816;44.624;2023-05-20T16:22:51;13.4;;;5.4;;
49582;SDS011;36329;48.816;44.624;2023-05-20T16:25:53;11.5;;;5.4;;
49582;SDS011;36329;48.816;44.624;2023-05-20T16:28:55;14.8;;;5.7;;
49582;SDS011;36329;48.816;44.624;2023-05-20T16:31:57;9.7;;;5.6;;
49582;SDS011;36329;48.816;44.624;2023-05-20T16:34:59;13.1;;;6.9;;
49582;SDS011;36329;48.816;44.624;2023-05-20T16:38:01;16.3;;;6.4;;
49582;SDS011;36329;48.816;44.624;2023-05-20T16:41:03;21.1;;;6.7;;
49582;SDS011;36329;48.816;44.624;2023-05-20T16:44:05;12.2;;;6.5;;
49582;SDS011;36329;48.816;44.624;2023-05-20T16:47:08;22.3;;;6.7;;
49582;SDS011;36329;48.816;44.624;2023-05-20T16:50:10;12;;;5.9;;
49582;SDS011;36329;48.816;44.624;2023-05-20T16:53:12;14.2;;;6.2;;
49582;SDS011;36329;48.816;44.624;2023-05-20T16:56:14;16.8;;;6.6;;
49582;SDS011;36329;48.816;44.624;2023-05-20T16:59:16;18.7;;;6.8;;
49582;SDS011;36329;48.816;44.624;2023-05-20T17:02:18;14.8;;;7.5;;
49582;SDS011;36329;48.816;44.624;2023-05-20T17:05:20;19.3;;;7.4;;
49582;SDS011;36329;48.816;44.624;2023-05-20T17:08:23;22.8;;;7.4;;
49582;SDS011;36329;48.816;44.624;2023-05-20T17:11:25;20.6;;;9.7;;
49582;SDS011;36329;48.816;44.624;2023-05-20T17:14:26;22.1;;;9.1;;
49582;SDS011;36329;48.816;44.624;2023-05-20T17:17:28;23.7;;;8.9;;
49582;SDS011;36329;48.816;44.624;2023-05-20T17:20:30;18.8;;;8.8;;
49582;SDS011;36329;48.816;44.624;2023-05-20T17:23:33;19.9;;;8.2;;
49582;SDS011;36329;48.816;44.624;2023-05-20T17:26:35;21.8;;;8.4;;
49582;SDS011;36329;48.816;44.624;2023-05-20T17:29:37;19.7;;;8.8;;
49582;SDS011;36329;48.816;44.624;2023-05-20T17:32:39;19.5;;;8.7;;
49582;SDS011;36329;48.816;44.624;2023-05-20T17:35:41;23.2;;;8.9;;
49582;SDS011;36329;48.816;44.624;2023-05-20T17:38:43;22.2;;;8.8;;
49582;SDS011;36329;48.816;44.624;2023-05-20T17:41:45;15.6;;;7.6;;
49582;SDS011;36329;48.816;44.624;2023-05-20T17:44:46;16.7;;;7.5;;
49582;SDS011;36329;48.816;44.624;2023-05-20T17:47:48;18.2;;;6.9;;
49582;SDS011;36329;48.816;44.624;2023-05-20T17:50:51;17.5;;;6.6;;
49582;SDS011;36329;48.816;44.624;2023-05-20T17:53:53;15.2;;;5.8;;
49582;SDS011;36329;48.816;44.624;2023-05-20T17:56:55;15.9;;;5.8;;
49582;SDS011;36329;48.816;44.624;2023-05-20T17:59:58;13.5;;;6.2;;
49582;SDS011;36329;48.816;44.624;2023-05-20T18:03:00;12.6;;;5.9;;
49582;SDS011;36329;48.816;44.624;2023-05-20T18:06:03;14.4;;;5.9;;
49582;SDS011;36329;48.816;44.624;2023-05-20T18:09:07;13.9;;;5.7;;
49582;SDS011;36329;48.816;44.624;2023-05-20T18:12:09;12.2;;;5.7;;
49582;SDS011;36329;48.816;44.624;2023-05-20T18:15:11;12.5;;;5.2;;
49582;SDS011;36329;48.816;44.624;2023-05-20T18:18:13;14.1;;;5.3;;
49582;SDS011;36329;48.816;44.624;2023-05-20T18:21:15;13.1;;;5.4;;
49582;SDS011;36329;48.816;44.624;2023-05-20T18:24:17;11.9;;;5.4;;
49582;SDS011;36329;48.816;44.624;2023-05-20T18:27:19;13.7;;;5;;
49582;SDS011;36329;48.816;44.624;2023-05-20T18:30:21;12.7;;;4.8;;
49582;SDS011;36329;48.816;44.624;2023-05-20T18:33:23;12.1;;;4.5;;
49582;SDS011;36329;48.816;44.624;2023-05-20T18:36:25;11.3;;;4.2;;